KCPS/CPS METAR and TAF weather

Enter ICAO airport designator
Station Type Date Time Source
KCPS METAR 2020/01/19 22:53 UTC NOAA

KCPS 192253Z 32016G21KT 10SM CLR M07/M13 A3053 RMK AO2 SLP346 T10671128 $


Station Type Date Time Source
KCPS Decoded METAR 2020/01/19 22:53 UTC NOAA

ST LOUIS DOWNTOWN AIRPORT, IL, United States (KCPS) 38-34N 090-09W 126M
Jan 19, 2020 - 05:53 PM EST / 2020.01.19 2253 UTC
Wind: from the NW (320 degrees) at 18 MPH (16 KT) gusting to 24 MPH (21 KT):0
Visibility: 10 mile(s):0
Sky conditions: clear
Temperature: 19.9 F (-6.7 C)
Windchill: 5 F (-15 C):1
Dew Point: 9.0 F (-12.8 C)
Relative Humidity: 61%
Pressure (altimeter): 30.53 in. Hg (1033 hPa)
ob: KCPS 192253Z 32016G21KT 10SM CLR M07/M13 A3053 RMK AO2 SLP346 T10671128
cycle: 23

Station Type Date Time Source
KCPS TAF 2020/01/19 18:39 UTC NOAA

TAF KCPS 191737Z 1918/2018 30014G24KT P6SM SCT025
TEMPO 1920/1924 BKN025
FM200000 32011KT P6SM SCT030
FM201500 32006KT P6SM BKN080

Example: see airport list